sensor_id;sensor_type;location;lat;lon;timestamp;P1;durP1;ratioP1;P2;durP2;ratioP2
42244;SDS011;27912;51.828;5.688;2023-08-06T00:02:22;6.97;;;2.75;;
42244;SDS011;27912;51.828;5.688;2023-08-06T00:04:48;10.75;;;3.58;;
42244;SDS011;27912;51.828;5.688;2023-08-06T00:07:13;4.90;;;3.40;;
42244;SDS011;27912;51.828;5.688;2023-08-06T00:09:39;7.70;;;3.08;;
42244;SDS011;27912;51.828;5.688;2023-08-06T00:12:05;5.25;;;3.40;;
42244;SDS011;27912;51.828;5.688;2023-08-06T00:14:30;9.18;;;3.20;;
42244;SDS011;27912;51.828;5.688;2023-08-06T00:16:56;6.15;;;2.85;;
42244;SDS011;27912;51.828;5.688;2023-08-06T00:19:21;8.50;;;2.63;;
42244;SDS011;27912;51.828;5.688;2023-08-06T00:21:47;6.78;;;2.90;;
42244;SDS011;27912;51.828;5.688;2023-08-06T00:24:12;4.15;;;2.70;;
42244;SDS011;27912;51.828;5.688;2023-08-06T00:26:38;4.32;;;2.33;;
42244;SDS011;27912;51.828;5.688;2023-08-06T00:29:04;5.32;;;2.38;;
42244;SDS011;27912;51.828;5.688;2023-08-06T00:31:29;6.03;;;3.40;;
42244;SDS011;27912;51.828;5.688;2023-08-06T00:33:55;4.72;;;2.45;;
42244;SDS011;27912;51.828;5.688;2023-08-06T00:36:20;12.63;;;3.42;;
42244;SDS011;27912;51.828;5.688;2023-08-06T00:38:46;4.82;;;2.88;;
42244;SDS011;27912;51.828;5.688;2023-08-06T00:41:11;7.95;;;2.35;;
42244;SDS011;27912;51.828;5.688;2023-08-06T00:43:37;8.50;;;2.67;;
42244;SDS011;27912;51.828;5.688;2023-08-06T00:46:02;7.10;;;2.33;;
42244;SDS011;27912;51.828;5.688;2023-08-06T00:48:28;4.53;;;2.47;;
42244;SDS011;27912;51.828;5.688;2023-08-06T00:50:54;5.60;;;2.92;;
42244;SDS011;27912;51.828;5.688;2023-08-06T00:53:20;4.63;;;2.35;;
42244;SDS011;27912;51.828;5.688;2023-08-06T00:55:45;4.88;;;2.40;;
42244;SDS011;27912;51.828;5.688;2023-08-06T00:58:12;3.45;;;2.33;;
42244;SDS011;27912;51.828;5.688;2023-08-06T01:00:40;4.13;;;2.15;;
42244;SDS011;27912;51.828;5.688;2023-08-06T01:03:05;3.60;;;2.10;;
42244;SDS011;27912;51.828;5.688;2023-08-06T01:05:31;4.88;;;1.95;;
42244;SDS011;27912;51.828;5.688;2023-08-06T01:13:46;4.10;;;2.20;;
42244;SDS011;27912;51.828;5.688;2023-08-06T01:16:17;5.25;;;2.35;;
42244;SDS011;27912;51.828;5.688;2023-08-06T01:18:46;3.50;;;1.88;;
42244;SDS011;27912;51.828;5.688;2023-08-06T01:21:14;3.92;;;2.17;;
42244;SDS011;27912;51.828;5.688;2023-08-06T01:23:43;4.30;;;2.42;;
42244;SDS011;27912;51.828;5.688;2023-08-06T01:26:30;3.95;;;2.05;;
42244;SDS011;27912;51.828;5.688;2023-08-06T01:29:10;5.85;;;2.10;;
42244;SDS011;27912;51.828;5.688;2023-08-06T01:31:48;5.05;;;2.58;;
42244;SDS011;27912;51.828;5.688;2023-08-06T01:34:22;3.38;;;2.30;;
42244;SDS011;27912;51.828;5.688;2023-08-06T01:36:50;7.53;;;2.33;;
42244;SDS011;27912;51.828;5.688;2023-08-06T01:39:16;6.70;;;2.58;;
42244;SDS011;27912;51.828;5.688;2023-08-06T01:41:42;4.32;;;2.70;;
42244;SDS011;27912;51.828;5.688;2023-08-06T01:44:07;5.55;;;2.47;;
42244;SDS011;27912;51.828;5.688;2023-08-06T01:46:33;5.38;;;3.35;;
42244;SDS011;27912;51.828;5.688;2023-08-06T01:48:58;7.57;;;2.92;;
42244;SDS011;27912;51.828;5.688;2023-08-06T01:51:24;5.85;;;3.13;;
42244;SDS011;27912;51.828;5.688;2023-08-06T01:53:49;6.05;;;3.13;;
42244;SDS011;27912;51.828;5.688;2023-08-06T01:56:15;5.55;;;3.20;;
42244;SDS011;27912;51.828;5.688;2023-08-06T01:58:40;6.90;;;3.00;;
42244;SDS011;27912;51.828;5.688;2023-08-06T02:01:06;7.15;;;2.88;;
42244;SDS011;27912;51.828;5.688;2023-08-06T02:03:31;4.90;;;2.83;;
42244;SDS011;27912;51.828;5.688;2023-08-06T02:05:57;7.88;;;3.42;;
42244;SDS011;27912;51.828;5.688;2023-08-06T02:08:22;4.38;;;2.95;;
42244;SDS011;27912;51.828;5.688;2023-08-06T02:10:48;7.10;;;3.47;;
42244;SDS011;27912;51.828;5.688;2023-08-06T02:13:14;5.88;;;3.40;;
42244;SDS011;27912;51.828;5.688;2023-08-06T02:15:43;4.40;;;2.70;;
42244;SDS011;27912;51.828;5.688;2023-08-06T02:18:09;6.50;;;3.65;;
42244;SDS011;27912;51.828;5.688;2023-08-06T02:20:34;5.07;;;3.92;;
42244;SDS011;27912;51.828;5.688;2023-08-06T02:23:00;5.10;;;3.60;;
42244;SDS011;27912;51.828;5.688;2023-08-06T02:25:25;4.18;;;3.25;;
42244;SDS011;27912;51.828;5.688;2023-08-06T02:27:51;7.82;;;3.40;;
42244;SDS011;27912;51.828;5.688;2023-08-06T02:30:16;5.97;;;2.97;;
42244;SDS011;27912;51.828;5.688;2023-08-06T02:32:42;6.45;;;3.97;;
42244;SDS011;27912;51.828;5.688;2023-08-06T02:35:08;5.18;;;3.28;;
42244;SDS011;27912;51.828;5.688;2023-08-06T02:37:34;8.23;;;3.97;;
42244;SDS011;27912;51.828;5.688;2023-08-06T02:39:59;8.40;;;3.90;;
42244;SDS011;27912;51.828;5.688;2023-08-06T02:42:25;4.35;;;3.47;;
42244;SDS011;27912;51.828;5.688;2023-08-06T02:44:51;6.53;;;3.55;;
42244;SDS011;27912;51.828;5.688;2023-08-06T02:47:19;6.97;;;3.90;;
42244;SDS011;27912;51.828;5.688;2023-08-06T02:49:45;6.78;;;3.88;;
42244;SDS011;27912;51.828;5.688;2023-08-06T02:52:11;6.82;;;3.90;;
42244;SDS011;27912;51.828;5.688;2023-08-06T02:54:36;8.75;;;4.95;;
42244;SDS011;27912;51.828;5.688;2023-08-06T02:57:02;6.35;;;4.22;;
42244;SDS011;27912;51.828;5.688;2023-08-06T02:59:27;9.18;;;4.75;;
42244;SDS011;27912;51.828;5.688;2023-08-06T03:01:53;6.25;;;4.43;;
42244;SDS011;27912;51.828;5.688;2023-08-06T03:04:18;6.50;;;5.60;;
42244;SDS011;27912;51.828;5.688;2023-08-06T03:06:44;7.35;;;4.68;;
42244;SDS011;27912;51.828;5.688;2023-08-06T03:09:09;7.38;;;4.78;;
42244;SDS011;27912;51.828;5.688;2023-08-06T03:11:35;10.48;;;5.35;;
42244;SDS011;27912;51.828;5.688;2023-08-06T03:14:01;6.95;;;4.70;;
42244;SDS011;27912;51.828;5.688;2023-08-06T03:16:26;10.13;;;5.93;;
42244;SDS011;27912;51.828;5.688;2023-08-06T03:18:52;11.48;;;6.57;;
42244;SDS011;27912;51.828;5.688;2023-08-06T03:21:17;10.40;;;6.72;;
42244;SDS011;27912;51.828;5.688;2023-08-06T03:23:43;11.38;;;7.18;;
42244;SDS011;27912;51.828;5.688;2023-08-06T03:26:11;13.90;;;7.38;;
42244;SDS011;27912;51.828;5.688;2023-08-06T03:28:37;11.80;;;8.45;;
42244;SDS011;27912;51.828;5.688;2023-08-06T03:31:03;11.07;;;8.50;;
42244;SDS011;27912;51.828;5.688;2023-08-06T03:33:29;11.38;;;8.25;;
42244;SDS011;27912;51.828;5.688;2023-08-06T03:35:55;11.85;;;9.20;;
42244;SDS011;27912;51.828;5.688;2023-08-06T03:38:21;15.65;;;10.15;;
42244;SDS011;27912;51.828;5.688;2023-08-06T03:40:47;14.10;;;9.50;;
42244;SDS011;27912;51.828;5.688;2023-08-06T03:43:13;13.95;;;10.70;;
42244;SDS011;27912;51.828;5.688;2023-08-06T03:45:40;15.82;;;10.27;;
42244;SDS011;27912;51.828;5.688;2023-08-06T03:48:05;13.15;;;10.13;;
42244;SDS011;27912;51.828;5.688;2023-08-06T03:50:31;14.48;;;11.48;;
42244;SDS011;27912;51.828;5.688;2023-08-06T03:52:57;14.90;;;10.02;;
42244;SDS011;27912;51.828;5.688;2023-08-06T03:55:22;17.20;;;12.05;;
42244;SDS011;27912;51.828;5.688;2023-08-06T03:57:48;19.73;;;12.15;;
42244;SDS011;27912;51.828;5.688;2023-08-06T04:00:13;17.52;;;11.70;;
42244;SDS011;27912;51.828;5.688;2023-08-06T04:02:39;17.52;;;11.88;;
42244;SDS011;27912;51.828;5.688;2023-08-06T04:05:04;14.80;;;11.20;;
42244;SDS011;27912;51.828;5.688;2023-08-06T04:07:30;17.52;;;12.70;;
42244;SDS011;27912;51.828;5.688;2023-08-06T04:10:00;16.38;;;11.75;;
42244;SDS011;27912;51.828;5.688;2023-08-06T04:12:27;19.58;;;12.30;;
42244;SDS011;27912;51.828;5.688;2023-08-06T04:14:53;17.90;;;12.43;;
42244;SDS011;27912;51.828;5.688;2023-08-06T04:17:19;14.68;;;11.60;;
42244;SDS011;27912;51.828;5.688;2023-08-06T04:19:46;17.77;;;12.95;;
42244;SDS011;27912;51.828;5.688;2023-08-06T04:22:16;17.85;;;12.52;;
42244;SDS011;27912;51.828;5.688;2023-08-06T04:24:41;18.55;;;12.23;;
42244;SDS011;27912;51.828;5.688;2023-08-06T04:27:08;16.77;;;12.57;;
42244;SDS011;27912;51.828;5.688;2023-08-06T04:29:34;20.33;;;13.10;;
42244;SDS011;27912;51.828;5.688;2023-08-06T04:32:00;17.60;;;13.93;;
42244;SDS011;27912;51.828;5.688;2023-08-06T04:34:26;19.77;;;13.57;;
42244;SDS011;27912;51.828;5.688;2023-08-06T04:36:51;19.95;;;14.07;;
42244;SDS011;27912;51.828;5.688;2023-08-06T04:39:17;19.88;;;13.55;;
42244;SDS011;27912;51.828;5.688;2023-08-06T04:41:42;21.35;;;14.02;;
42244;SDS011;27912;51.828;5.688;2023-08-06T04:44:08;19.75;;;14.93;;
42244;SDS011;27912;51.828;5.688;2023-08-06T04:46:33;21.30;;;14.68;;
42244;SDS011;27912;51.828;5.688;2023-08-06T04:48:59;21.67;;;14.32;;
42244;SDS011;27912;51.828;5.688;2023-08-06T04:51:24;21.48;;;14.52;;
42244;SDS011;27912;51.828;5.688;2023-08-06T04:53:50;18.33;;;14.88;;
42244;SDS011;27912;51.828;5.688;2023-08-06T04:56:15;21.45;;;14.80;;
42244;SDS011;27912;51.828;5.688;2023-08-06T04:58:41;18.38;;;14.60;;
42244;SDS011;27912;51.828;5.688;2023-08-06T05:01:06;22.45;;;15.75;;
42244;SDS011;27912;51.828;5.688;2023-08-06T05:03:32;18.20;;;13.98;;
42244;SDS011;27912;51.828;5.688;2023-08-06T05:05:58;19.35;;;15.38;;
42244;SDS011;27912;51.828;5.688;2023-08-06T05:08:23;25.00;;;15.35;;
42244;SDS011;27912;51.828;5.688;2023-08-06T05:10:49;21.58;;;15.65;;
42244;SDS011;27912;51.828;5.688;2023-08-06T05:13:14;20.67;;;14.57;;
42244;SDS011;27912;51.828;5.688;2023-08-06T05:15:41;20.20;;;14.88;;
42244;SDS011;27912;51.828;5.688;2023-08-06T05:18:07;23.67;;;16.27;;
42244;SDS011;27912;51.828;5.688;2023-08-06T05:20:36;25.05;;;17.10;;
42244;SDS011;27912;51.828;5.688;2023-08-06T05:23:03;24.33;;;16.58;;
42244;SDS011;27912;51.828;5.688;2023-08-06T05:25:29;27.55;;;18.13;;
42244;SDS011;27912;51.828;5.688;2023-08-06T05:27:55;25.83;;;18.50;;
42244;SDS011;27912;51.828;5.688;2023-08-06T05:30:20;23.05;;;16.33;;
42244;SDS011;27912;51.828;5.688;2023-08-06T05:32:46;24.58;;;18.00;;
42244;SDS011;27912;51.828;5.688;2023-08-06T05:35:11;24.42;;;17.77;;
42244;SDS011;27912;51.828;5.688;2023-08-06T05:37:37;25.70;;;17.23;;
42244;SDS011;27912;51.828;5.688;2023-08-06T05:40:03;25.33;;;17.92;;
42244;SDS011;27912;51.828;5.688;2023-08-06T05:42:29;25.25;;;17.00;;
42244;SDS011;27912;51.828;5.688;2023-08-06T05:44:55;27.48;;;18.48;;
42244;SDS011;27912;51.828;5.688;2023-08-06T05:47:20;31.15;;;18.92;;
42244;SDS011;27912;51.828;5.688;2023-08-06T05:49:46;27.42;;;17.77;;
42244;SDS011;27912;51.828;5.688;2023-08-06T05:52:11;29.40;;;18.38;;
42244;SDS011;27912;51.828;5.688;2023-08-06T05:54:37;25.55;;;17.60;;
42244;SDS011;27912;51.828;5.688;2023-08-06T05:57:02;25.63;;;19.23;;
42244;SDS011;27912;51.828;5.688;2023-08-06T05:59:28;26.90;;;19.08;;
42244;SDS011;27912;51.828;5.688;2023-08-06T06:01:54;22.73;;;17.73;;
42244;SDS011;27912;51.828;5.688;2023-08-06T06:04:20;22.92;;;17.73;;
42244;SDS011;27912;51.828;5.688;2023-08-06T06:06:45;23.42;;;18.02;;
42244;SDS011;27912;51.828;5.688;2023-08-06T06:09:11;24.63;;;18.83;;
42244;SDS011;27912;51.828;5.688;2023-08-06T06:11:36;23.05;;;17.98;;
42244;SDS011;27912;51.828;5.688;2023-08-06T06:14:02;24.95;;;18.73;;
42244;SDS011;27912;51.828;5.688;2023-08-06T06:16:27;23.90;;;17.33;;
42244;SDS011;27912;51.828;5.688;2023-08-06T06:18:53;25.48;;;17.73;;
42244;SDS011;27912;51.828;5.688;2023-08-06T06:21:19;24.20;;;16.38;;
42244;SDS011;27912;51.828;5.688;2023-08-06T06:23:45;23.67;;;17.15;;
42244;SDS011;27912;51.828;5.688;2023-08-06T06:26:11;23.33;;;16.40;;
42244;SDS011;27912;51.828;5.688;2023-08-06T06:28:37;23.25;;;16.88;;
42244;SDS011;27912;51.828;5.688;2023-08-06T06:31:03;22.23;;;17.73;;
42244;SDS011;27912;51.828;5.688;2023-08-06T06:33:29;21.98;;;17.10;;
42244;SDS011;27912;51.828;5.688;2023-08-06T06:35:54;22.48;;;17.17;;
42244;SDS011;27912;51.828;5.688;2023-08-06T06:38:20;21.80;;;16.50;;
42244;SDS011;27912;51.828;5.688;2023-08-06T06:40:55;20.02;;;16.58;;
42244;SDS011;27912;51.828;5.688;2023-08-06T06:43:21;21.35;;;16.45;;
42244;SDS011;27912;51.828;5.688;2023-08-06T06:45:51;23.40;;;16.60;;
42244;SDS011;27912;51.828;5.688;2023-08-06T06:48:18;22.33;;;16.48;;
42244;SDS011;27912;51.828;5.688;2023-08-06T06:50:46;22.48;;;16.52;;
42244;SDS011;27912;51.828;5.688;2023-08-06T06:53:13;23.88;;;16.67;;
42244;SDS011;27912;51.828;5.688;2023-08-06T06:55:38;22.60;;;15.43;;
42244;SDS011;27912;51.828;5.688;2023-08-06T06:58:04;22.27;;;15.43;;
42244;SDS011;27912;51.828;5.688;2023-08-06T07:00:29;18.98;;;15.48;;
42244;SDS011;27912;51.828;5.688;2023-08-06T07:02:55;18.92;;;14.57;;
42244;SDS011;27912;51.828;5.688;2023-08-06T07:05:20;18.40;;;14.23;;
42244;SDS011;27912;51.828;5.688;2023-08-06T07:07:46;21.70;;;15.25;;
42244;SDS011;27912;51.828;5.688;2023-08-06T07:10:11;23.13;;;15.43;;
42244;SDS011;27912;51.828;5.688;2023-08-06T07:12:37;18.05;;;15.05;;
42244;SDS011;27912;51.828;5.688;2023-08-06T07:15:06;17.73;;;14.27;;
42244;SDS011;27912;51.828;5.688;2023-08-06T07:17:31;17.48;;;13.43;;
42244;SDS011;27912;51.828;5.688;2023-08-06T07:19:57;20.92;;;15.23;;
42244;SDS011;27912;51.828;5.688;2023-08-06T07:22:23;17.10;;;15.00;;
42244;SDS011;27912;51.828;5.688;2023-08-06T07:24:48;20.15;;;16.25;;
42244;SDS011;27912;51.828;5.688;2023-08-06T07:27:14;21.20;;;16.30;;
42244;SDS011;27912;51.828;5.688;2023-08-06T07:29:40;20.95;;;16.98;;
42244;SDS011;27912;51.828;5.688;2023-08-06T07:32:06;24.33;;;18.02;;
42244;SDS011;27912;51.828;5.688;2023-08-06T07:34:32;25.15;;;18.50;;
42244;SDS011;27912;51.828;5.688;2023-08-06T07:36:57;23.77;;;19.95;;
42244;SDS011;27912;51.828;5.688;2023-08-06T07:39:23;25.25;;;19.65;;
42244;SDS011;27912;51.828;5.688;2023-08-06T07:41:49;24.80;;;19.60;;
42244;SDS011;27912;51.828;5.688;2023-08-06T07:44:14;27.40;;;20.00;;
42244;SDS011;27912;51.828;5.688;2023-08-06T07:46:40;23.48;;;20.58;;
42244;SDS011;27912;51.828;5.688;2023-08-06T07:49:06;24.05;;;19.75;;
42244;SDS011;27912;51.828;5.688;2023-08-06T07:51:32;26.27;;;19.90;;
42244;SDS011;27912;51.828;5.688;2023-08-06T07:53:58;27.65;;;21.00;;
42244;SDS011;27912;51.828;5.688;2023-08-06T07:56:23;30.92;;;21.70;;
42244;SDS011;27912;51.828;5.688;2023-08-06T07:58:49;28.40;;;20.33;;
42244;SDS011;27912;51.828;5.688;2023-08-06T08:01:14;27.30;;;20.58;;
42244;SDS011;27912;51.828;5.688;2023-08-06T08:03:40;23.67;;;19.55;;
42244;SDS011;27912;51.828;5.688;2023-08-06T08:06:05;26.40;;;20.17;;
42244;SDS011;27912;51.828;5.688;2023-08-06T08:08:31;28.27;;;20.65;;
42244;SDS011;27912;51.828;5.688;2023-08-06T08:10:56;27.70;;;21.40;;
42244;SDS011;27912;51.828;5.688;2023-08-06T08:13:24;26.58;;;19.65;;
42244;SDS011;27912;51.828;5.688;2023-08-06T08:15:49;27.73;;;20.85;;
42244;SDS011;27912;51.828;5.688;2023-08-06T08:18:15;30.70;;;21.30;;
42244;SDS011;27912;51.828;5.688;2023-08-06T08:20:40;36.90;;;21.10;;
42244;SDS011;27912;51.828;5.688;2023-08-06T08:23:06;29.90;;;22.30;;
42244;SDS011;27912;51.828;5.688;2023-08-06T08:25:32;32.55;;;22.48;;
42244;SDS011;27912;51.828;5.688;2023-08-06T08:27:59;31.13;;;21.88;;
42244;SDS011;27912;51.828;5.688;2023-08-06T08:30:24;27.13;;;21.40;;
42244;SDS011;27912;51.828;5.688;2023-08-06T08:32:50;26.98;;;20.55;;
42244;SDS011;27912;51.828;5.688;2023-08-06T08:35:16;20.55;;;17.02;;
42244;SDS011;27912;51.828;5.688;2023-08-06T08:37:42;19.60;;;12.85;;
42244;SDS011;27912;51.828;5.688;2023-08-06T08:40:08;7.65;;;5.32;;
42244;SDS011;27912;51.828;5.688;2023-08-06T08:42:35;4.93;;;2.33;;
42244;SDS011;27912;51.828;5.688;2023-08-06T08:45:01;4.70;;;1.52;;
42244;SDS011;27912;51.828;5.688;2023-08-06T08:47:29;1.40;;;0.70;;
42244;SDS011;27912;51.828;5.688;2023-08-06T08:49:56;1.80;;;0.60;;
42244;SDS011;27912;51.828;5.688;2023-08-06T08:52:23;1.90;;;0.82;;
42244;SDS011;27912;51.828;5.688;2023-08-06T08:54:52;2.33;;;0.70;;
42244;SDS011;27912;51.828;5.688;2023-08-06T08:57:19;1.20;;;0.60;;
42244;SDS011;27912;51.828;5.688;2023-08-06T08:59:45;1.88;;;0.70;;
42244;SDS011;27912;51.828;5.688;2023-08-06T09:02:11;1.80;;;0.50;;
42244;SDS011;27912;51.828;5.688;2023-08-06T09:04:38;2.67;;;0.68;;
42244;SDS011;27912;51.828;5.688;2023-08-06T09:07:05;1.20;;;0.70;;
42244;SDS011;27912;51.828;5.688;2023-08-06T09:09:35;2.35;;;0.98;;
42244;SDS011;27912;51.828;5.688;2023-08-06T09:12:06;1.95;;;1.27;;
42244;SDS011;27912;51.828;5.688;2023-08-06T09:14:38;2.55;;;1.45;;
42244;SDS011;27912;51.828;5.688;2023-08-06T09:17:04;4.38;;;1.80;;
42244;SDS011;27912;51.828;5.688;2023-08-06T09:19:31;2.80;;;1.60;;
42244;SDS011;27912;51.828;5.688;2023-08-06T09:21:57;3.05;;;2.00;;
42244;SDS011;27912;51.828;5.688;2023-08-06T09:24:24;2.60;;;1.52;;
42244;SDS011;27912;51.828;5.688;2023-08-06T09:26:51;3.35;;;2.28;;
42244;SDS011;27912;51.828;5.688;2023-08-06T09:29:16;3.05;;;2.38;;
42244;SDS011;27912;51.828;5.688;2023-08-06T09:31:43;3.03;;;2.05;;
42244;SDS011;27912;51.828;5.688;2023-08-06T09:34:14;3.67;;;2.22;;
42244;SDS011;27912;51.828;5.688;2023-08-06T09:36:47;3.42;;;2.25;;
42244;SDS011;27912;51.828;5.688;2023-08-06T09:39:18;3.85;;;2.50;;
42244;SDS011;27912;51.828;5.688;2023-08-06T09:41:45;4.85;;;2.78;;
42244;SDS011;27912;51.828;5.688;2023-08-06T09:44:15;3.65;;;2.60;;
42244;SDS011;27912;51.828;5.688;2023-08-06T09:46:48;4.55;;;2.75;;
42244;SDS011;27912;51.828;5.688;2023-08-06T09:49:14;3.90;;;2.22;;
42244;SDS011;27912;51.828;5.688;2023-08-06T09:51:41;5.97;;;3.10;;
42244;SDS011;27912;51.828;5.688;2023-08-06T09:54:06;5.80;;;3.38;;
42244;SDS011;27912;51.828;5.688;2023-08-06T09:56:33;5.38;;;3.47;;
42244;SDS011;27912;51.828;5.688;2023-08-06T09:59:02;4.60;;;3.35;;
42244;SDS011;27912;51.828;5.688;2023-08-06T10:01:30;6.63;;;3.95;;
42244;SDS011;27912;51.828;5.688;2023-08-06T10:03:58;7.03;;;4.43;;
42244;SDS011;27912;51.828;5.688;2023-08-06T10:06:24;9.52;;;5.60;;
42244;SDS011;27912;51.828;5.688;2023-08-06T10:08:51;7.68;;;5.22;;
42244;SDS011;27912;51.828;5.688;2023-08-06T10:11:17;8.13;;;6.00;;
42244;SDS011;27912;51.828;5.688;2023-08-06T10:13:43;8.77;;;6.25;;
42244;SDS011;27912;51.828;5.688;2023-08-06T10:16:09;12.77;;;7.55;;
42244;SDS011;27912;51.828;5.688;2023-08-06T10:18:36;9.57;;;6.70;;
42244;SDS011;27912;51.828;5.688;2023-08-06T10:21:04;11.98;;;7.53;;
42244;SDS011;27912;51.828;5.688;2023-08-06T10:23:34;11.43;;;8.00;;
42244;SDS011;27912;51.828;5.688;2023-08-06T10:26:00;12.65;;;7.53;;
42244;SDS011;27912;51.828;5.688;2023-08-06T10:28:36;11.52;;;7.93;;
42244;SDS011;27912;51.828;5.688;2023-08-06T10:31:02;9.20;;;7.25;;
42244;SDS011;27912;51.828;5.688;2023-08-06T10:33:41;12.13;;;7.80;;
42244;SDS011;27912;51.828;5.688;2023-08-06T10:36:11;11.02;;;8.25;;
42244;SDS011;27912;51.828;5.688;2023-08-06T10:38:49;12.93;;;9.35;;
42244;SDS011;27912;51.828;5.688;2023-08-06T10:41:16;12.88;;;8.98;;
42244;SDS011;27912;51.828;5.688;2023-08-06T10:43:48;13.85;;;9.27;;
42244;SDS011;27912;51.828;5.688;2023-08-06T10:49:08;11.90;;;7.30;;
42244;SDS011;27912;51.828;5.688;2023-08-06T10:51:35;10.85;;;6.93;;
42244;SDS011;27912;51.828;5.688;2023-08-06T10:54:02;13.07;;;7.15;;
42244;SDS011;27912;51.828;5.688;2023-08-06T10:56:27;9.25;;;6.85;;
42244;SDS011;27912;51.828;5.688;2023-08-06T10:58:54;13.90;;;7.18;;
42244;SDS011;27912;51.828;5.688;2023-08-06T11:01:21;9.40;;;6.53;;
42244;SDS011;27912;51.828;5.688;2023-08-06T11:03:48;10.93;;;7.30;;
42244;SDS011;27912;51.828;5.688;2023-08-06T11:06:18;11.98;;;6.93;;
42244;SDS011;27912;51.828;5.688;2023-08-06T11:08:48;13.30;;;8.23;;
42244;SDS011;27912;51.828;5.688;2023-08-06T11:11:18;11.07;;;7.30;;
42244;SDS011;27912;51.828;5.688;2023-08-06T11:13:48;13.00;;;8.70;;
42244;SDS011;27912;51.828;5.688;2023-08-06T11:16:15;11.82;;;8.23;;
42244;SDS011;27912;51.828;5.688;2023-08-06T11:18:42;15.35;;;8.45;;
42244;SDS011;27912;51.828;5.688;2023-08-06T11:21:08;12.45;;;7.28;;
42244;SDS011;27912;51.828;5.688;2023-08-06T11:23:34;9.15;;;5.55;;
42244;SDS011;27912;51.828;5.688;2023-08-06T11:26:00;8.63;;;5.22;;
42244;SDS011;27912;51.828;5.688;2023-08-06T11:28:26;9.02;;;5.20;;
42244;SDS011;27912;51.828;5.688;2023-08-06T11:30:51;10.95;;;5.78;;
42244;SDS011;27912;51.828;5.688;2023-08-06T11:33:23;11.50;;;5.07;;
42244;SDS011;27912;51.828;5.688;2023-08-06T11:35:56;9.15;;;5.55;;
42244;SDS011;27912;51.828;5.688;2023-08-06T11:38:26;9.40;;;5.30;;
42244;SDS011;27912;51.828;5.688;2023-08-06T11:40:53;9.23;;;4.90;;
42244;SDS011;27912;51.828;5.688;2023-08-06T11:43:19;6.63;;;4.38;;
42244;SDS011;27912;51.828;5.688;2023-08-06T11:45:48;13.13;;;4.85;;
42244;SDS011;27912;51.828;5.688;2023-08-06T11:48:15;8.05;;;4.65;;
42244;SDS011;27912;51.828;5.688;2023-08-06T11:50:41;10.60;;;3.78;;
42244;SDS011;27912;51.828;5.688;2023-08-06T11:53:07;10.10;;;4.40;;
42244;SDS011;27912;51.828;5.688;2023-08-06T11:55:36;6.95;;;4.50;;
42244;SDS011;27912;51.828;5.688;2023-08-06T11:58:02;10.50;;;4.30;;
42244;SDS011;27912;51.828;5.688;2023-08-06T12:00:31;7.22;;;4.38;;
42244;SDS011;27912;51.828;5.688;2023-08-06T12:02:57;13.05;;;5.88;;
42244;SDS011;27912;51.828;5.688;2023-08-06T12:05:23;8.43;;;5.25;;
42244;SDS011;27912;51.828;5.688;2023-08-06T12:07:58;6.57;;;4.55;;
42244;SDS011;27912;51.828;5.688;2023-08-06T12:10:25;9.80;;;4.53;;
42244;SDS011;27912;51.828;5.688;2023-08-06T12:12:52;11.55;;;4.38;;
42244;SDS011;27912;51.828;5.688;2023-08-06T12:15:18;7.28;;;5.10;;
42244;SDS011;27912;51.828;5.688;2023-08-06T12:17:44;9.48;;;4.70;;
42244;SDS011;27912;51.828;5.688;2023-08-06T12:20:10;8.30;;;4.55;;
42244;SDS011;27912;51.828;5.688;2023-08-06T12:22:36;9.55;;;4.68;;
42244;SDS011;27912;51.828;5.688;2023-08-06T12:25:04;8.27;;;4.97;;
42244;SDS011;27912;51.828;5.688;2023-08-06T12:27:33;9.07;;;4.38;;
42244;SDS011;27912;51.828;5.688;2023-08-06T12:29:59;7.50;;;4.45;;
42244;SDS011;27912;51.828;5.688;2023-08-06T12:32:25;8.32;;;3.70;;
42244;SDS011;27912;51.828;5.688;2023-08-06T12:34:51;9.15;;;4.78;;
42244;SDS011;27912;51.828;5.688;2023-08-06T12:37:16;8.07;;;4.25;;
42244;SDS011;27912;51.828;5.688;2023-08-06T12:39:42;8.98;;;4.15;;
42244;SDS011;27912;51.828;5.688;2023-08-06T12:42:07;7.40;;;3.80;;
42244;SDS011;27912;51.828;5.688;2023-08-06T12:44:33;6.03;;;3.70;;
42244;SDS011;27912;51.828;5.688;2023-08-06T12:46:59;4.95;;;2.78;;
42244;SDS011;27912;51.828;5.688;2023-08-06T12:49:25;5.82;;;2.97;;
42244;SDS011;27912;51.828;5.688;2023-08-06T12:51:51;5.72;;;2.30;;
42244;SDS011;27912;51.828;5.688;2023-08-06T12:54:18;9.15;;;3.20;;
42244;SDS011;27912;51.828;5.688;2023-08-06T12:56:44;4.93;;;2.03;;
42244;SDS011;27912;51.828;5.688;2023-08-06T12:59:10;4.97;;;2.47;;
42244;SDS011;27912;51.828;5.688;2023-08-06T13:01:39;4.75;;;2.50;;
42244;SDS011;27912;51.828;5.688;2023-08-06T13:04:05;8.75;;;2.25;;
42244;SDS011;27912;51.828;5.688;2023-08-06T13:06:31;6.00;;;2.97;;
42244;SDS011;27912;51.828;5.688;2023-08-06T13:09:01;5.65;;;2.90;;
42244;SDS011;27912;51.828;5.688;2023-08-06T13:11:27;5.38;;;3.00;;
42244;SDS011;27912;51.828;5.688;2023-08-06T13:13:53;6.95;;;3.30;;
42244;SDS011;27912;51.828;5.688;2023-08-06T13:16:18;7.18;;;3.17;;
42244;SDS011;27912;51.828;5.688;2023-08-06T13:18:44;7.57;;;3.53;;
42244;SDS011;27912;51.828;5.688;2023-08-06T13:21:09;6.47;;;2.50;;
42244;SDS011;27912;51.828;5.688;2023-08-06T13:23:35;7.15;;;2.40;;
42244;SDS011;27912;51.828;5.688;2023-08-06T13:26:01;7.47;;;2.58;;
42244;SDS011;27912;51.828;5.688;2023-08-06T13:28:27;9.05;;;3.55;;
42244;SDS011;27912;51.828;5.688;2023-08-06T13:30:53;6.43;;;3.47;;
42244;SDS011;27912;51.828;5.688;2023-08-06T13:33:18;10.27;;;3.28;;
42244;SDS011;27912;51.828;5.688;2023-08-06T13:35:44;7.43;;;3.40;;
42244;SDS011;27912;51.828;5.688;2023-08-06T13:38:09;9.02;;;3.30;;
42244;SDS011;27912;51.828;5.688;2023-08-06T13:40:35;4.82;;;2.30;;
42244;SDS011;27912;51.828;5.688;2023-08-06T13:43:01;4.45;;;1.33;;
42244;SDS011;27912;51.828;5.688;2023-08-06T13:45:26;3.55;;;1.23;;
42244;SDS011;27912;51.828;5.688;2023-08-06T13:47:52;5.22;;;1.48;;
42244;SDS011;27912;51.828;5.688;2023-08-06T13:50:17;3.45;;;1.65;;
42244;SDS011;27912;51.828;5.688;2023-08-06T13:52:44;5.72;;;1.60;;
42244;SDS011;27912;51.828;5.688;2023-08-06T13:55:10;3.50;;;1.05;;
42244;SDS011;27912;51.828;5.688;2023-08-06T13:57:35;3.58;;;1.25;;
42244;SDS011;27912;51.828;5.688;2023-08-06T14:00:01;5.55;;;1.85;;
42244;SDS011;27912;51.828;5.688;2023-08-06T14:02:27;6.13;;;1.92;;
42244;SDS011;27912;51.828;5.688;2023-08-06T14:04:53;5.95;;;2.40;;
42244;SDS011;27912;51.828;5.688;2023-08-06T14:07:19;5.38;;;2.25;;
42244;SDS011;27912;51.828;5.688;2023-08-06T14:09:44;6.50;;;2.67;;
42244;SDS011;27912;51.828;5.688;2023-08-06T14:12:12;6.18;;;3.17;;
42244;SDS011;27912;51.828;5.688;2023-08-06T14:14:37;3.88;;;2.50;;
42244;SDS011;27912;51.828;5.688;2023-08-06T14:17:03;6.72;;;2.58;;
42244;SDS011;27912;51.828;5.688;2023-08-06T14:19:29;6.38;;;1.98;;
42244;SDS011;27912;51.828;5.688;2023-08-06T14:21:54;7.28;;;2.53;;
42244;SDS011;27912;51.828;5.688;2023-08-06T14:24:20;4.88;;;2.25;;
42244;SDS011;27912;51.828;5.688;2023-08-06T14:26:46;5.43;;;3.10;;
42244;SDS011;27912;51.828;5.688;2023-08-06T14:29:11;4.90;;;3.28;;
42244;SDS011;27912;51.828;5.688;2023-08-06T14:31:38;5.45;;;3.10;;
42244;SDS011;27912;51.828;5.688;2023-08-06T14:34:05;6.38;;;2.58;;
42244;SDS011;27912;51.828;5.688;2023-08-06T14:36:30;6.00;;;2.50;;
42244;SDS011;27912;51.828;5.688;2023-08-06T14:38:56;3.85;;;2.38;;
42244;SDS011;27912;51.828;5.688;2023-08-06T14:41:21;4.40;;;2.20;;